Time;durP1;ratioP1;P1;durP2;ratioP2;P2;SDS_P1;SDS_P2;PMS_P1;PMS_P2;Temp;Humidity;BMP_temperature;BMP_pressure;BME280_temperature;BME280_humidity;BME280_pressure;Samples;Min_cycle;Max_cycle;Signal;HPM_P1;HPM_P2
2023/05/13 00:01:37;;;;;;;2.20;1.40;;;;;10.60;95920.00;;;;5052937;28;20212;-59
2023/05/13 00:04:07;;;;;;;2.10;1.10;;;;;10.60;95922.00;;;;5052826;28;20202;-60
2023/05/13 00:06:34;;;;;;;1.03;1.03;;;;;10.60;95917.00;;;;5052904;28;20208;-59
2023/05/13 00:09:03;;;;;;;0.70;0.70;;;;;10.50;95933.00;;;;5053288;28;20246;-59
2023/05/13 00:11:31;;;;;;;0.93;0.93;;;;;10.50;95929.00;;;;5053104;28;20658;-59
2023/05/13 00:13:58;;;;;;;1.10;1.10;;;;;10.50;95931.00;;;;5051642;28;20200;-59
2023/05/13 00:16:27;;;;;;;0.60;0.60;;;;;10.40;95925.00;;;;5052898;28;20195;-59
2023/05/13 00:18:55;;;;;;;0.80;0.80;;;;;10.40;95919.00;;;;5051670;28;20318;-59
2023/05/13 00:21:23;;;;;;;1.20;1.20;;;;;10.30;95923.00;;;;5052831;28;20220;-59
2023/05/13 00:23:50;;;;;;;0.70;0.70;;;;;10.20;95916.00;;;;5052966;28;20242;-60
2023/05/13 00:26:20;;;;;;;0.70;0.70;;;;;10.30;95914.00;;;;5052722;28;20220;-59
2023/05/13 00:28:48;;;;;;;0.90;0.90;;;;;10.30;95919.00;;;;5052749;28;20298;-59
2023/05/13 00:31:15;;;;;;;1.40;1.30;;;;;10.30;95923.00;;;;5053065;28;20208;-60
2023/05/13 00:33:42;;;;;;;0.77;0.77;;;;;10.30;95925.00;;;;5052693;28;20188;-60
2023/05/13 00:36:11;;;;;;;1.10;1.10;;;;;10.30;95922.00;;;;5052710;28;20218;-59
2023/05/13 00:38:39;;;;;;;1.03;1.03;;;;;10.20;95923.00;;;;5052110;28;20659;-59
2023/05/13 00:41:06;;;;;;;1.13;1.13;;;;;10.20;95917.00;;;;5052588;28;20208;-59
2023/05/13 00:43:35;;;;;;;0.73;0.73;;;;;10.20;95924.00;;;;5052603;28;20195;-59
2023/05/13 00:46:03;;;;;;;1.80;1.70;;;;;10.20;95921.00;;;;5052741;28;20203;-59
2023/05/13 00:48:30;;;;;;;0.70;0.70;;;;;10.20;95923.00;;;;5052623;28;20329;-58
2023/05/13 00:50:58;;;;;;;0.90;0.90;;;;;10.20;95922.00;;;;5052403;28;20304;-59
2023/05/13 00:53:25;;;;;;;1.03;1.03;;;;;10.20;95921.00;;;;5053070;28;20192;-59
2023/05/13 00:55:52;;;;;;;1.00;1.00;;;;;10.20;95922.00;;;;5052451;28;20201;-58
2023/05/13 00:58:20;;;;;;;1.33;1.23;;;;;10.20;95920.00;;;;5051182;28;20192;-59
2023/05/13 01:00:57;;;;;;;0.83;0.83;;;;;10.20;95927.00;;;;5051081;28;20715;-59
2023/05/13 01:03:33;;;;;;;0.90;0.90;;;;;10.20;95922.00;;;;5052395;28;20200;-59
2023/05/13 01:06:12;;;;;;;0.70;0.70;;;;;10.20;95918.00;;;;5052656;28;20513;-59
2023/05/13 01:08:49;;;;;;;0.80;0.80;;;;;10.30;95916.00;;;;5052354;28;20184;-59
2023/05/13 01:11:22;;;;;;;0.80;0.80;;;;;10.20;95921.00;;;;5054599;28;20266;-59
2023/05/13 01:13:54;;;;;;;0.73;0.73;;;;;10.40;95927.00;;;;5054680;28;20680;-60
2023/05/13 01:16:31;;;;;;;0.70;0.70;;;;;10.30;95918.00;;;;5056516;28;20188;-59
2023/05/13 01:19:02;;;;;;;0.70;0.70;;;;;10.30;95928.00;;;;5055996;28;20196;-59
2023/05/13 01:21:35;;;;;;;0.80;0.80;;;;;10.30;95887.00;;;;5056066;28;20231;-59
2023/05/13 01:24:02;;;;;;;1.00;1.00;;;;;10.30;95924.00;;;;5055809;28;20180;-59
2023/05/13 01:26:30;;;;;;;1.10;1.10;;;;;10.20;95922.00;;;;5054448;28;20623;-59
2023/05/13 01:28:57;;;;;;;0.80;0.80;;;;;10.20;95923.00;;;;5054508;28;20281;-59
2023/05/13 01:31:25;;;;;;;1.00;1.00;;;;;10.20;95922.00;;;;5056185;28;20216;-59
2023/05/13 01:33:53;;;;;;;0.63;0.63;;;;;10.20;95934.00;;;;5055679;28;20188;-59
2023/05/13 01:36:20;;;;;;;1.20;1.20;;;;;10.20;95926.00;;;;5055552;28;20193;-59
2023/05/13 01:38:50;;;;;;;0.97;0.97;;;;;10.10;95926.00;;;;5055492;28;20270;-59
2023/05/13 01:41:17;;;;;;;1.10;1.10;;;;;10.20;95930.00;;;;5055491;28;20212;-59
2023/05/13 01:43:44;;;;;;;0.73;0.73;;;;;10.10;95930.00;;;;5055433;28;20188;-59
2023/05/13 01:46:12;;;;;;;1.13;1.13;;;;;10.10;95926.00;;;;5055407;28;20196;-59
2023/05/13 01:48:40;;;;;;;1.00;1.00;;;;;10.10;95930.00;;;;5055339;28;20200;-60
2023/05/13 01:51:07;;;;;;;0.83;0.83;;;;;10.20;95928.00;;;;5055256;28;20220;-58
2023/05/13 01:53:35;;;;;;;0.70;0.70;;;;;10.30;95936.00;;;;5055523;28;20215;-58
2023/05/13 01:56:04;;;;;;;0.73;0.73;;;;;10.20;95931.00;;;;5055224;28;20196;-58
2023/05/13 01:58:31;;;;;;;0.83;0.83;;;;;10.30;95928.00;;;;5055099;28;20206;-58
2023/05/13 02:01:06;;;;;;;1.20;1.10;;;;;10.30;95931.00;;;;5064692;22;20236;-56
2023/05/13 02:03:35;;;;;;;1.10;1.10;;;;;10.30;95930.00;;;;5035269;28;20222;-55
2023/05/13 02:06:02;;;;;;;1.00;1.00;;;;;10.30;95931.00;;;;5035137;28;20197;-55
2023/05/13 02:08:29;;;;;;;1.00;1.00;;;;;10.20;95931.00;;;;5035049;28;20220;-55
2023/05/13 02:10:57;;;;;;;0.97;0.97;;;;;10.30;95930.00;;;;5034941;28;20213;-55
2023/05/13 02:13:26;;;;;;;1.00;1.00;;;;;10.30;95932.00;;;;5034975;28;20242;-55
2023/05/13 02:15:54;;;;;;;0.90;0.90;;;;;10.30;95931.00;;;;5034924;28;20255;-55
2023/05/13 02:18:22;;;;;;;1.03;1.03;;;;;10.30;95932.00;;;;5035198;28;20548;-55
2023/05/13 02:20:49;;;;;;;0.77;0.77;;;;;10.30;95939.00;;;;5034745;28;20706;-55
2023/05/13 02:23:17;;;;;;;0.73;0.73;;;;;10.30;95941.00;;;;5034835;28;20239;-55
2023/05/13 02:25:45;;;;;;;0.77;0.77;;;;;10.30;95939.00;;;;5034741;28;20275;-55
2023/05/13 02:28:12;;;;;;;1.07;1.07;;;;;10.40;95938.00;;;;5034608;28;20726;-55
2023/05/13 02:30:41;;;;;;;1.17;1.17;;;;;10.30;95931.00;;;;5034809;28;20220;-55
2023/05/13 02:33:08;;;;;;;1.20;1.10;;;;;10.30;95930.00;;;;5034923;28;20579;-55
2023/05/13 02:35:35;;;;;;;0.87;0.87;;;;;10.30;95942.00;;;;5034502;28;20188;-55
2023/05/13 02:38:03;;;;;;;1.10;1.10;;;;;10.20;95932.00;;;;5034488;28;20660;-55
2023/05/13 02:40:31;;;;;;;1.37;1.33;;;;;10.20;95935.00;;;;5034365;28;20292;-55
2023/05/13 02:42:58;;;;;;;0.90;0.90;;;;;10.20;95931.00;;;;5034656;28;20203;-55
2023/05/13 02:45:25;;;;;;;1.17;1.17;;;;;10.30;95928.00;;;;5034309;28;20196;-55
2023/05/13 02:47:54;;;;;;;1.00;1.00;;;;;10.20;95933.00;;;;5034450;28;20232;-55
2023/05/13 02:50:22;;;;;;;1.17;1.13;;;;;10.20;95932.00;;;;5034568;28;20220;-55
2023/05/13 02:52:49;;;;;;;1.13;1.13;;;;;10.30;95927.00;;;;5034666;28;20197;-55
2023/05/13 02:55:17;;;;;;;0.73;0.73;;;;;10.20;95921.00;;;;5034122;28;20196;-55
2023/05/13 02:57:44;;;;;;;0.83;0.83;;;;;10.10;95920.00;;;;5034117;28;20195;-55
2023/05/13 03:00:13;;;;;;;0.90;0.90;;;;;10.00;95926.00;;;;5034654;28;20193;-55
2023/05/13 03:02:40;;;;;;;0.83;0.83;;;;;10.00;95926.00;;;;5034318;28;20577;-55
2023/05/13 03:05:09;;;;;;;0.90;0.90;;;;;10.10;95923.00;;;;5034013;28;20668;-55
2023/05/13 03:07:37;;;;;;;0.80;0.80;;;;;10.00;95927.00;;;;5034610;28;20209;-55
2023/05/13 03:10:05;;;;;;;0.90;0.90;;;;;10.00;95927.00;;;;5033866;28;20196;-55
2023/05/13 03:12:32;;;;;;;1.20;1.10;;;;;10.00;95931.00;;;;5034065;28;20201;-55
2023/05/13 03:15:00;;;;;;;1.80;1.70;;;;;9.90;95929.00;;;;5033785;28;20250;-55
2023/05/13 03:17:29;;;;;;;0.60;0.60;;;;;9.90;95927.00;;;;5033749;28;20264;-55
2023/05/13 03:19:57;;;;;;;1.07;1.07;;;;;9.90;95929.00;;;;5032448;28;20196;-55
2023/05/13 03:22:26;;;;;;;0.90;0.90;;;;;9.90;95928.00;;;;5033684;28;20211;-55
2023/05/13 03:24:53;;;;;;;1.07;1.07;;;;;9.80;95927.00;;;;5033636;28;20207;-55
2023/05/13 03:27:21;;;;;;;0.93;0.93;;;;;9.90;95932.00;;;;5033510;28;20664;-55
2023/05/13 03:29:48;;;;;;;0.83;0.83;;;;;9.90;95927.00;;;;5033545;28;20231;-55
2023/05/13 03:32:15;;;;;;;1.47;1.37;;;;;9.90;95933.00;;;;5033394;28;20213;-55
2023/05/13 03:34:43;;;;;;;0.70;0.70;;;;;10.00;95935.00;;;;5033107;28;20200;-55
2023/05/13 03:37:10;;;;;;;1.53;1.43;;;;;9.90;95935.00;;;;5033494;28;20189;-55
2023/05/13 03:39:39;;;;;;;2.20;1.37;;;;;10.00;95941.00;;;;5033335;28;20193;-55
2023/05/13 03:42:07;;;;;;;0.90;0.90;;;;;10.00;95939.00;;;;5033254;28;20216;-55
2023/05/13 03:44:34;;;;;;;1.73;1.03;;;;;9.90;95938.00;;;;5033328;28;20246;-55
2023/05/13 03:47:02;;;;;;;1.33;1.23;;;;;9.90;95944.00;;;;5031849;28;20655;-55
2023/05/13 03:49:29;;;;;;;1.13;1.07;;;;;9.90;95952.00;;;;5033174;28;20200;-56
2023/05/13 03:51:56;;;;;;;1.57;1.47;;;;;10.00;95947.00;;;;5033188;28;20223;-55
2023/05/13 03:54:24;;;;;;;0.70;0.70;;;;;10.00;95947.00;;;;5033199;28;20200;-55
2023/05/13 03:56:53;;;;;;;0.90;0.90;;;;;9.90;95933.00;;;;5031790;28;20258;-55
2023/05/13 03:59:20;;;;;;;0.70;0.70;;;;;9.90;95942.00;;;;5031831;28;20196;-55
2023/05/13 04:01:47;;;;;;;0.97;0.97;;;;;9.90;95954.00;;;;5031637;28;20224;-55
2023/05/13 04:04:15;;;;;;;0.70;0.70;;;;;10.00;95955.00;;;;5033081;28;20193;-55
2023/05/13 04:06:42;;;;;;;0.67;0.67;;;;;10.00;95951.00;;;;5033089;28;20203;-55
2023/05/13 04:09:10;;;;;;;11.70;1.40;;;;;10.00;95946.00;;;;5031653;28;20695;-55
2023/05/13 04:11:37;;;;;;;1.93;1.83;;;;;10.00;95949.00;;;;5032896;28;20243;-55
2023/05/13 04:14:06;;;;;;;1.00;1.00;;;;;9.90;95951.00;;;;5032978;28;20196;-55
2023/05/13 04:16:33;;;;;;;0.97;0.97;;;;;9.90;95950.00;;;;5033216;28;20193;-55
2023/05/13 04:19:00;;;;;;;0.97;0.97;;;;;9.90;95950.00;;;;5032892;28;20192;-55
2023/05/13 04:21:28;;;;;;;1.20;1.20;;;;;9.90;95953.00;;;;5032828;28;20235;-55
2023/05/13 04:23:55;;;;;;;0.70;0.70;;;;;9.90;95953.00;;;;5033117;28;20189;-55
2023/05/13 04:26:23;;;;;;;1.57;1.47;;;;;9.90;95956.00;;;;5032827;28;20193;-55
2023/05/13 04:28:50;;;;;;;1.33;1.27;;;;;9.90;95962.00;;;;5032681;28;20220;-55
2023/05/13 04:31:20;;;;;;;0.70;0.70;;;;;9.90;95964.00;;;;5032732;28;20327;-55
2023/05/13 04:33:47;;;;;;;1.33;1.23;;;;;9.90;95958.00;;;;5032772;28;20200;-55
2023/05/13 04:36:15;;;;;;;1.10;1.10;;;;;9.90;95963.00;;;;5032793;28;20201;-55
2023/05/13 04:38:42;;;;;;;0.73;0.73;;;;;10.00;95959.00;;;;5032754;28;20193;-55
2023/05/13 04:41:09;;;;;;;1.27;1.27;;;;;9.90;95963.00;;;;5032644;28;20279;-55
2023/05/13 04:43:37;;;;;;;0.90;0.90;;;;;10.00;95962.00;;;;5032659;28;20216;-55
2023/05/13 04:46:04;;;;;;;1.23;1.23;;;;;10.00;95962.00;;;;5034990;28;20586;-55
2023/05/13 04:48:33;;;;;;;1.07;1.07;;;;;9.90;95967.00;;;;5036649;28;20581;-55
2023/05/13 04:51:00;;;;;;;1.03;1.03;;;;;9.90;95970.00;;;;5036376;28;20303;-55
2023/05/13 04:53:28;;;;;;;0.77;0.77;;;;;9.90;95977.00;;;;5036457;28;20196;-55
2023/05/13 04:55:59;;;;;;;0.73;0.73;;;;;9.90;95976.00;;;;5036357;28;20207;-55
2023/05/13 04:58:27;;;;;;;1.10;1.10;;;;;10.00;95982.00;;;;5036337;28;20173;-55
2023/05/13 05:00:54;;;;;;;1.03;1.03;;;;;9.90;95978.00;;;;5036107;28;20266;-55
2023/05/13 05:03:22;;;;;;;1.00;1.00;;;;;9.90;95972.00;;;;5036275;28;20193;-55
2023/05/13 05:05:50;;;;;;;0.60;0.60;;;;;10.00;95983.00;;;;5036235;28;20200;-55
2023/05/13 05:08:18;;;;;;;1.23;1.13;;;;;9.80;95981.00;;;;5036104;28;20213;-55
2023/05/13 05:10:45;;;;;;;0.53;0.53;;;;;9.80;95982.00;;;;5036087;28;20205;-55
2023/05/13 05:13:12;;;;;;;1.00;1.00;;;;;9.70;95985.00;;;;5036104;28;20250;-55
2023/05/13 05:15:40;;;;;;;0.90;0.90;;;;;9.70;95993.00;;;;5036542;28;20199;-55
2023/05/13 05:18:08;;;;;;;0.67;0.67;;;;;9.80;95992.00;;;;5036055;28;20266;-55
2023/05/13 05:20:36;;;;;;;4.37;1.17;;;;;9.70;96004.00;;;;5035760;28;20224;-55
2023/05/13 05:23:04;;;;;;;0.50;0.50;;;;;9.60;95996.00;;;;5036427;28;20197;-56
2023/05/13 05:25:32;;;;;;;1.17;1.17;;;;;9.90;95997.00;;;;5036089;28;20188;-56
2023/05/13 05:27:59;;;;;;;0.90;0.90;;;;;9.90;96005.00;;;;5035735;28;20221;-56
2023/05/13 05:30:27;;;;;;;0.87;0.87;;;;;9.80;96001.00;;;;5035614;28;20212;-55
2023/05/13 05:32:55;;;;;;;1.20;1.20;;;;;9.70;96012.00;;;;5035682;28;20651;-55
2023/05/13 05:35:22;;;;;;;0.80;0.80;;;;;9.90;96015.00;;;;5035686;28;20189;-55
2023/05/13 05:37:49;;;;;;;1.03;0.97;;;;;9.90;96002.00;;;;5035826;28;20559;-55
2023/05/13 05:40:20;;;;;;;2.77;1.30;;;;;9.90;96001.00;;;;5034133;28;20200;-53
2023/05/13 05:42:47;;;;;;;0.60;0.60;;;;;10.00;96004.00;;;;5035781;28;20551;-53
2023/05/13 05:45:14;;;;;;;0.90;0.90;;;;;10.10;96003.00;;;;5035379;28;20188;-54
2023/05/13 05:47:42;;;;;;;0.80;0.80;;;;;10.20;96004.00;;;;5035271;28;20212;-54
2023/05/13 05:50:10;;;;;;;0.90;0.90;;;;;10.30;96008.00;;;;5035504;28;20275;-54
2023/05/13 05:52:37;;;;;;;1.23;1.13;;;;;10.10;96003.00;;;;5035312;28;20189;-54
2023/05/13 05:55:06;;;;;;;0.97;0.97;;;;;10.10;96007.00;;;;5035265;28;20239;-54
2023/05/13 05:57:34;;;;;;;1.17;1.17;;;;;10.30;96007.00;;;;5035042;28;20199;-54
2023/05/13 06:00:02;;;;;;;0.83;0.83;;;;;10.40;96011.00;;;;5035256;28;20529;-54
2023/05/13 06:02:29;;;;;;;1.23;1.23;;;;;10.50;96004.00;;;;5034996;28;20683;-54
2023/05/13 06:04:57;;;;;;;4.83;1.47;;;;;10.50;96002.00;;;;5035048;28;20193;-54
2023/05/13 06:07:25;;;;;;;0.90;0.90;;;;;10.60;96005.00;;;;5035041;28;20193;-55
2023/05/13 06:09:52;;;;;;;1.20;1.20;;;;;10.70;96003.00;;;;5035447;28;20196;-54
2023/05/13 06:12:19;;;;;;;0.60;0.60;;;;;10.70;96005.00;;;;5035125;28;20217;-54
2023/05/13 06:14:48;;;;;;;0.80;0.80;;;;;10.80;96006.00;;;;5034886;28;20306;-54
2023/05/13 06:17:15;;;;;;;1.00;1.00;;;;;10.80;96008.00;;;;5033565;28;20201;-54
2023/05/13 06:19:43;;;;;;;1.10;1.10;;;;;10.80;96015.00;;;;5034731;28;20298;-54
2023/05/13 06:22:10;;;;;;;0.97;0.97;;;;;10.90;96017.00;;;;5033372;28;20220;-54
2023/05/13 06:24:41;;;;;;;0.90;0.90;;;;;10.90;96012.00;;;;5034669;28;20189;-54
2023/05/13 06:27:09;;;;;;;0.70;0.70;;;;;11.00;96012.00;;;;5034912;28;20194;-55
2023/05/13 06:29:37;;;;;;;1.07;1.07;;;;;11.10;96014.00;;;;5034586;28;20189;-54
2023/05/13 06:32:07;;;;;;;0.80;0.80;;;;;11.10;96020.00;;;;5034803;28;20619;-55
2023/05/13 06:34:34;;;;;;;0.80;0.80;;;;;11.10;96017.00;;;;5034537;28;20197;-56
2023/05/13 06:37:01;;;;;;;0.80;0.80;;;;;11.10;96013.00;;;;5034710;28;20300;-54
2023/05/13 06:39:29;;;;;;;1.13;1.13;;;;;11.10;96020.00;;;;5034367;28;20258;-56
2023/05/13 06:41:56;;;;;;;0.90;0.90;;;;;11.20;96020.00;;;;5034234;28;20223;-56
2023/05/13 06:44:24;;;;;;;1.37;1.07;;;;;11.20;96020.00;;;;5034333;28;20200;-55
2023/05/13 06:46:51;;;;;;;0.83;0.83;;;;;11.20;96026.00;;;;5034334;28;20698;-55
2023/05/13 06:49:20;;;;;;;0.93;0.93;;;;;11.20;96028.00;;;;5034223;28;20189;-55
2023/05/13 06:51:47;;;;;;;0.87;0.87;;;;;11.30;96031.00;;;;5034387;28;20229;-55
2023/05/13 06:54:15;;;;;;;2.53;2.07;;;;;11.30;96028.00;;;;5034641;28;20192;-56
2023/05/13 06:56:42;;;;;;;0.77;0.77;;;;;11.30;96029.00;;;;5034356;28;20288;-56
2023/05/13 06:59:10;;;;;;;0.87;0.87;;;;;11.30;96034.00;;;;5034184;28;20291;-56
2023/05/13 07:01:38;;;;;;;0.70;0.70;;;;;11.40;96037.00;;;;5034066;28;20229;-55
2023/05/13 07:04:06;;;;;;;0.93;0.77;;;;;11.30;96033.00;;;;5033958;28;20195;-56
2023/05/13 07:06:35;;;;;;;0.77;0.77;;;;;11.30;96045.00;;;;5032693;28;20200;-54
2023/05/13 07:09:03;;;;;;;0.87;0.87;;;;;11.40;96040.00;;;;5033204;28;20215;-55
2023/05/13 07:11:31;;;;;;;1.03;1.03;;;;;11.40;96042.00;;;;5033722;28;20228;-55
2023/05/13 07:13:58;;;;;;;1.00;1.00;;;;;11.50;96042.00;;;;5033817;28;20212;-55
2023/05/13 07:16:25;;;;;;;0.80;0.80;;;;;11.60;96033.00;;;;5033898;28;20212;-55
2023/05/13 07:18:53;;;;;;;1.10;1.10;;;;;11.60;96037.00;;;;5033631;28;20216;-56
2023/05/13 07:21:21;;;;;;;0.70;0.70;;;;;11.70;96031.00;;;;5033576;28;20297;-56
2023/05/13 07:23:49;;;;;;;1.03;1.03;;;;;11.80;96030.00;;;;5033800;28;20271;-55
2023/05/13 07:26:17;;;;;;;1.00;1.00;;;;;12.10;96034.00;;;;5033831;28;20263;-55
2023/05/13 07:28:44;;;;;;;1.10;1.00;;;;;12.20;96035.00;;;;5033384;28;20200;-55
2023/05/13 07:31:11;;;;;;;0.93;0.93;;;;;12.30;96039.00;;;;5033403;28;20216;-55
2023/05/13 07:33:39;;;;;;;0.70;0.70;;;;;12.30;96037.00;;;;5033355;28;20204;-55
2023/05/13 07:36:07;;;;;;;2.23;2.10;;;;;12.40;96038.00;;;;5033345;28;20204;-55
2023/05/13 07:38:34;;;;;;;0.93;0.93;;;;;12.40;96033.00;;;;5033115;28;20266;-55
2023/05/13 07:41:03;;;;;;;1.10;1.10;;;;;12.40;96040.00;;;;5033374;28;20217;-55
2023/05/13 07:43:33;;;;;;;1.53;1.43;;;;;12.50;96032.00;;;;5033283;28;20204;-55
2023/05/13 07:46:02;;;;;;;0.83;0.83;;;;;12.50;96040.00;;;;5033243;28;20185;-55
2023/05/13 07:48:30;;;;;;;0.90;0.90;;;;;12.60;96035.00;;;;5033197;28;20185;-55
2023/05/13 07:50:57;;;;;;;0.77;0.77;;;;;12.70;96030.00;;;;5033146;28;20240;-56
2023/05/13 07:53:26;;;;;;;2.07;1.63;;;;;12.50;96034.00;;;;5033340;28;20196;-55
2023/05/13 07:55:53;;;;;;;1.20;1.17;;;;;12.80;96041.00;;;;5033178;28;20192;-55
2023/05/13 07:58:22;;;;;;;1.67;1.57;;;;;13.00;96040.00;;;;5031705;28;20659;-55
2023/05/13 08:00:49;;;;;;;0.87;0.87;;;;;13.10;96040.00;;;;5046253;23;20380;-55
2023/05/13 08:03:17;;;;;;;1.37;1.27;;;;;13.10;96044.00;;;;5073147;28;20708;-55
2023/05/13 08:05:46;;;;;;;1.27;1.27;;;;;13.40;96037.00;;;;5073174;28;20198;-55
2023/05/13 08:08:14;;;;;;;1.60;1.50;;;;;13.40;96041.00;;;;5073083;28;20730;-55
2023/05/13 08:10:41;;;;;;;1.20;0.97;;;;;13.50;96040.00;;;;5071643;28;20203;-55
2023/05/13 08:13:09;;;;;;;1.17;1.17;;;;;13.60;96031.00;;;;5072949;28;20217;-55
2023/05/13 08:15:38;;;;;;;1.27;1.27;;;;;13.70;96030.00;;;;5073043;28;20202;-55
2023/05/13 08:18:06;;;;;;;1.33;1.23;;;;;13.80;96034.00;;;;5073238;28;20187;-55
2023/05/13 08:20:33;;;;;;;1.00;1.00;;;;;13.80;96030.00;;;;5076070;28;20223;-55
2023/05/13 08:23:01;;;;;;;1.37;1.37;;;;;13.80;96043.00;;;;5077076;28;20650;-54
2023/05/13 08:25:28;;;;;;;0.50;0.50;;;;;14.00;96045.00;;;;5077090;28;20674;-55
2023/05/13 08:27:56;;;;;;;1.33;1.33;;;;;14.10;96045.00;;;;5077250;28;20191;-55
2023/05/13 08:30:24;;;;;;;1.23;1.23;;;;;14.20;96039.00;;;;5077162;28;20245;-55
2023/05/13 08:32:53;;;;;;;2.80;2.60;;;;;14.10;96042.00;;;;5075551;28;20226;-55
2023/05/13 08:35:20;;;;;;;1.33;1.33;;;;;14.40;96044.00;;;;5077101;28;20195;-55
2023/05/13 08:37:48;;;;;;;1.23;1.23;;;;;14.50;96042.00;;;;5077092;28;20600;-54
2023/05/13 08:40:15;;;;;;;1.37;1.27;;;;;14.50;96040.00;;;;5076946;28;20572;-55
2023/05/13 08:42:45;;;;;;;1.10;1.10;;;;;14.40;96047.00;;;;5076582;28;20218;-55
2023/05/13 08:45:13;;;;;;;0.80;0.80;;;;;14.50;96045.00;;;;5076647;28;20199;-55
2023/05/13 08:47:48;;;;;;;0.90;0.90;;;;;14.70;96040.00;;;;5076572;28;20183;-55
2023/05/13 08:50:18;;;;;;;2.97;1.97;;;;;14.80;96051.00;;;;5076545;28;20178;-55
2023/05/13 08:52:45;;;;;;;1.43;1.33;;;;;14.70;96047.00;;;;5076507;28;20215;-55
2023/05/13 08:55:13;;;;;;;1.47;1.37;;;;;14.70;96051.00;;;;5076727;28;20673;-56
2023/05/13 08:57:41;;;;;;;0.70;0.70;;;;;14.80;96051.00;;;;5076570;28;20284;-55
2023/05/13 09:00:09;;;;;;;0.77;0.77;;;;;14.70;96050.00;;;;5076479;28;20223;-55
2023/05/13 09:02:36;;;;;;;0.97;0.97;;;;;14.70;96054.00;;;;5076189;28;20211;-55
2023/05/13 09:05:07;;;;;;;0.93;0.93;;;;;14.50;96045.00;;;;5076724;28;20266;-54
2023/05/13 09:07:37;;;;;;;0.63;0.63;;;;;14.60;96051.00;;;;5076366;28;20184;-55
2023/05/13 09:10:06;;;;;;;1.57;1.27;;;;;14.30;96056.00;;;;5076488;28;20607;-59
2023/05/13 09:12:50;;;;;;;0.70;0.70;;;;;14.80;96048.00;;;;5076133;28;20222;-55
2023/05/13 09:15:20;;;;;;;1.77;1.67;;;;;14.80;96055.00;;;;5076131;28;20199;-55
2023/05/13 09:17:51;;;;;;;1.30;1.20;;;;;15.10;96053.00;;;;5076690;28;20217;-55
2023/05/13 09:20:19;;;;;;;1.17;1.17;;;;;14.90;96058.00;;;;5076002;28;20203;-55
2023/05/13 09:22:50;;;;;;;1.00;1.00;;;;;15.10;96059.00;;;;5076149;28;20582;-55
2023/05/13 09:25:19;;;;;;;1.00;1.00;;;;;15.10;96056.00;;;;5075896;28;20229;-55
2023/05/13 09:27:48;;;;;;;1.00;1.00;;;;;15.20;96050.00;;;;5075782;28;20286;-55
2023/05/13 09:30:16;;;;;;;1.00;1.00;;;;;15.40;96053.00;;;;5076601;28;20249;-55
2023/05/13 09:32:43;;;;;;;0.70;0.70;;;;;15.40;96060.00;;;;5075024;28;20216;-54
2023/05/13 09:35:16;;;;;;;0.70;0.70;;;;;15.50;96061.00;;;;5074392;28;20195;-54
2023/05/13 09:37:49;;;;;;;0.80;0.80;;;;;15.60;96063.00;;;;5076245;28;20175;-54
2023/05/13 09:40:17;;;;;;;1.43;1.33;;;;;15.50;96066.00;;;;5075817;28;20219;-54
2023/05/13 09:42:46;;;;;;;1.30;1.20;;;;;15.20;96061.00;;;;5075544;28;20712;-54
2023/05/13 09:45:15;;;;;;;0.97;0.97;;;;;15.20;96068.00;;;;5074274;28;20208;-54
2023/05/13 09:47:43;;;;;;;0.83;0.83;;;;;15.10;96070.00;;;;5075806;28;20599;-54
2023/05/13 09:50:12;;;;;;;0.97;0.90;;;;;15.00;96075.00;;;;5075666;28;20187;-54
2023/05/13 09:52:39;;;;;;;0.80;0.80;;;;;15.00;96079.00;;;;5075381;28;20227;-54
2023/05/13 09:55:10;;;;;;;1.77;1.67;;;;;14.90;96073.00;;;;5075324;28;20200;-54
2023/05/13 09:57:39;;;;;;;0.87;0.87;;;;;14.80;96083.00;;;;5075328;28;20183;-54
2023/05/13 10:00:08;;;;;;;0.70;0.70;;;;;14.80;96083.00;;;;5075760;28;20697;-54
2023/05/13 10:02:36;;;;;;;1.47;0.80;;;;;14.80;96088.00;;;;5075055;28;20215;-54
2023/05/13 10:05:03;;;;;;;0.93;0.93;;;;;14.90;96091.00;;;;5073929;28;20203;-54
2023/05/13 10:07:33;;;;;;;2.17;1.10;;;;;14.90;96085.00;;;;5075049;28;20196;-55
2023/05/13 10:10:02;;;;;;;0.90;0.90;;;;;15.00;96092.00;;;;5075377;28;20199;-55
2023/05/13 10:12:33;;;;;;;1.30;1.20;;;;;15.10;96083.00;;;;5074953;28;20226;-55
2023/05/13 10:15:02;;;;;;;1.43;1.43;;;;;14.90;96087.00;;;;5075197;28;20190;-55
2023/05/13 10:17:30;;;;;;;0.97;0.97;;;;;15.00;96089.00;;;;5075128;28;20253;-55
2023/05/13 10:19:58;;;;;;;0.93;0.93;;;;;15.00;96089.00;;;;5074897;28;20222;-55
2023/05/13 10:22:29;;;;;;;1.03;1.03;;;;;15.10;96083.00;;;;5074797;28;20265;-55
2023/05/13 10:24:58;;;;;;;1.60;1.50;;;;;14.50;96077.00;;;;5074888;28;20270;-54
2023/05/13 10:27:28;;;;;;;0.80;0.80;;;;;14.70;96088.00;;;;5074707;28;20199;-55
2023/05/13 10:29:58;;;;;;;1.53;1.43;;;;;14.80;96087.00;;;;5075005;28;20689;-55
2023/05/13 10:32:27;;;;;;;0.90;0.90;;;;;14.70;96093.00;;;;5074779;28;20609;-55
2023/05/13 10:34:59;;;;;;;0.60;0.60;;;;;14.90;96081.00;;;;5075032;28;20196;-55
2023/05/13 10:38:01;;;;;;;1.30;1.20;;;;;14.70;96085.00;;;;5074424;28;20175;-55
2023/05/13 10:40:56;;;;;;;1.23;1.23;;;;;14.90;96084.00;;;;5074603;28;20623;-55
2023/05/13 10:43:27;;;;;;;0.80;0.80;;;;;14.90;96089.00;;;;5073353;28;20187;-55
2023/05/13 10:46:00;;;;;;;0.70;0.70;;;;;15.10;96086.00;;;;5074595;28;20545;-55
2023/05/13 10:48:37;;;;;;;1.90;1.20;;;;;15.10;96086.00;;;;5073013;28;20206;-55
2023/05/13 10:51:06;;;;;;;1.30;1.17;;;;;15.20;96083.00;;;;5074583;28;20246;-55
2023/05/13 10:53:42;;;;;;;0.77;0.77;;;;;15.30;96086.00;;;;5074378;28;20257;-55
2023/05/13 10:56:10;;;;;;;0.90;0.90;;;;;15.30;96085.00;;;;5074454;28;20215;-55
2023/05/13 10:58:38;;;;;;;1.73;1.63;;;;;15.30;96089.00;;;;5074079;28;20262;-55
2023/05/13 11:01:18;;;;;;;1.50;0.93;;;;;15.20;96093.00;;;;5074060;28;20230;-55
2023/05/13 11:03:52;;;;;;;1.13;1.03;;;;;15.10;96087.00;;;;5074551;28;20172;-55
2023/05/13 11:06:22;;;;;;;0.70;0.70;;;;;15.00;96094.00;;;;5073954;28;20199;-56
2023/05/13 11:08:51;;;;;;;0.83;0.83;;;;;14.80;96094.00;;;;5073897;28;20219;-56
2023/05/13 11:11:26;;;;;;;0.97;0.97;;;;;14.90;96084.00;;;;5073932;28;20215;-56
2023/05/13 11:13:55;;;;;;;0.80;0.80;;;;;14.90;96085.00;;;;5074156;28;20190;-56
2023/05/13 11:16:24;;;;;;;1.13;1.13;;;;;14.90;96089.00;;;;5074012;28;20196;-54
2023/05/13 11:18:52;;;;;;;0.90;0.90;;;;;15.00;96092.00;;;;5074030;28;20191;-54
2023/05/13 11:21:31;;;;;;;1.03;1.03;;;;;15.10;96090.00;;;;5073544;28;20226;-54
2023/05/13 11:24:00;;;;;;;0.90;0.90;;;;;14.80;96099.00;;;;5074001;28;20229;-54
2023/05/13 11:26:46;;;;;;;0.70;0.70;;;;;14.60;96101.00;;;;5073766;28;20662;-55
2023/05/13 11:29:13;;;;;;;0.67;0.67;;;;;14.30;96099.00;;;;5074183;28;20194;-55
2023/05/13 11:31:51;;;;;;;1.30;1.23;;;;;14.10;96094.00;;;;5073688;28;20591;-55
2023/05/13 11:34:19;;;;;;;0.93;0.93;;;;;14.10;96095.00;;;;5073712;28;20191;-55
2023/05/13 11:36:49;;;;;;;1.30;1.20;;;;;14.10;96094.00;;;;5073757;28;20191;-55
2023/05/13 11:39:18;;;;;;;0.70;0.70;;;;;14.10;96097.00;;;;5073324;28;20199;-55
2023/05/13 11:41:47;;;;;;;1.00;1.00;;;;;14.20;96104.00;;;;5073624;28;20231;-55
2023/05/13 11:44:16;;;;;;;0.70;0.70;;;;;14.30;96101.00;;;;5073378;28;20196;-54
2023/05/13 11:46:52;;;;;;;0.70;0.70;;;;;14.20;96098.00;;;;5073297;28;20658;-54
2023/05/13 11:49:40;;;;;;;1.27;1.17;;;;;14.20;96096.00;;;;5073284;28;20184;-54
2023/05/13 11:52:09;;;;;;;0.80;0.80;;;;;14.20;96097.00;;;;5073187;28;20211;-56
2023/05/13 11:54:45;;;;;;;1.20;1.13;;;;;14.60;96093.00;;;;5073168;28;20613;-54
2023/05/13 11:57:32;;;;;;;0.77;0.77;;;;;14.80;96095.00;;;;5073137;28;20198;-54
2023/05/13 12:00:00;;;;;;;1.00;1.00;;;;;14.70;96097.00;;;;5073426;28;20650;-54
2023/05/13 12:02:30;;;;;;;0.73;0.73;;;;;14.70;96088.00;;;;5072994;28;20219;-54
2023/05/13 12:05:03;;;;;;;1.17;1.07;;;;;14.80;96095.00;;;;5072681;28;20275;-54
2023/05/13 12:07:30;;;;;;;1.93;0.90;;;;;15.00;96097.00;;;;5073360;28;20198;-55
2023/05/13 12:09:59;;;;;;;1.07;1.07;;;;;15.20;96099.00;;;;5071952;28;20198;-54
2023/05/13 12:12:28;;;;;;;1.37;1.27;;;;;15.50;96101.00;;;;5073248;28;20596;-54
2023/05/13 12:14:58;;;;;;;1.60;0.77;;;;;15.30;96101.00;;;;5073304;28;20569;-54
2023/05/13 12:17:27;;;;;;;0.90;0.90;;;;;15.40;96094.00;;;;5073566;28;20190;-58
2023/05/13 12:20:10;;;;;;;1.10;1.10;;;;;15.80;96093.00;;;;5072874;28;20214;-54
2023/05/13 12:22:48;;;;;;;1.60;1.47;;;;;16.00;96094.00;;;;5073067;28;20211;-54
2023/05/13 12:25:39;;;;;;;0.97;0.97;;;;;16.10;96100.00;;;;5073160;28;20175;-54
2023/05/13 12:28:09;;;;;;;1.27;1.27;;;;;16.10;96098.00;;;;5072944;28;20186;-54